createdAt,value
2022-07-29T00:02:25.626Z,95082.22
2022-07-29T00:04:52.360Z,95077.97
2022-07-29T00:07:19.111Z,95092.97
2022-07-29T00:09:50.848Z,95093.16
2022-07-29T00:12:25.634Z,95086.28
2022-07-29T00:14:57.884Z,95082.44
2022-07-29T00:17:25.392Z,95069.06
2022-07-29T00:19:52.266Z,95071.44
2022-07-29T00:22:19.592Z,95079.75
2022-07-29T00:24:47.801Z,95071.09
2022-07-29T00:27:14.356Z,95062.16
2022-07-29T00:29:41.108Z,95054.13
2022-07-29T00:32:07.973Z,95077.69
2022-07-29T00:34:53.156Z,95074.84
2022-07-29T00:37:19.785Z,95072.25
2022-07-29T00:39:46.463Z,95075.19
2022-07-29T00:42:13.281Z,95081.78
2022-07-29T00:44:41.405Z,95078.69
2022-07-29T00:47:09.571Z,95076.19
2022-07-29T00:49:36.821Z,95073.75
2022-07-29T00:52:04.914Z,95077.06
2022-07-29T00:54:33.198Z,95077.41
2022-07-29T00:57:00.430Z,95092.59
2022-07-29T00:59:34.735Z,95084.38
2022-07-29T01:02:02.558Z,95104.34
2022-07-29T01:04:30.686Z,95106.56
2022-07-29T01:06:57.665Z,95098.25
2022-07-29T01:09:35.950Z,95071.09
2022-07-29T01:12:14.007Z,95069.59
2022-07-29T01:14:42.440Z,95073.44
2022-07-29T01:17:18.893Z,95083.31
2022-07-29T01:20:00.768Z,95099.44
2022-07-29T01:22:43.590Z,95093.13
2022-07-29T01:25:20.848Z,95080.59
2022-07-29T01:28:14.727Z,95073.34
2022-07-29T01:30:45.567Z,95056.84
2022-07-29T01:33:36.327Z,95048.53
2022-07-29T01:36:11.811Z,95052.00
2022-07-29T01:38:42.544Z,95047.06
2022-07-29T01:41:13.589Z,95060.13
2022-07-29T01:43:53.060Z,95057.38
2022-07-29T01:46:26.677Z,95073.28
2022-07-29T01:49:12.309Z,95072.59
2022-07-29T01:51:52.712Z,95091.06
2022-07-29T01:54:27.262Z,95098.19
2022-07-29T01:56:57.807Z,95088.09
2022-07-29T01:59:25.839Z,95077.09
2022-07-29T02:01:55.958Z,95092.28
2022-07-29T02:04:29.002Z,95082.13
2022-07-29T02:07:01.723Z,95076.69
2022-07-29T02:09:30.549Z,95065.81
2022-07-29T02:11:59.403Z,95071.75
2022-07-29T02:14:29.734Z,95079.19
2022-07-29T02:16:57.384Z,95082.13
2022-07-29T02:19:28.078Z,95080.63
2022-07-29T02:21:56.858Z,95050.19
2022-07-29T02:24:25.616Z,95083.75
2022-07-29T02:26:55.936Z,95070.22
2022-07-29T02:29:24.516Z,95078.72
2022-07-29T02:31:52.731Z,95063.69
2022-07-29T02:34:21.827Z,95059.22
2022-07-29T02:36:50.604Z,95067.22
2022-07-29T02:39:19.699Z,95087.72
2022-07-29T02:41:52.851Z,95088.59
2022-07-29T02:44:21.672Z,95093.00
2022-07-29T02:47:05.213Z,95097.50
2022-07-29T02:49:42.151Z,95072.19
2022-07-29T02:52:23.856Z,95068.19
2022-07-29T02:54:57.083Z,95086.19
2022-07-29T02:57:32.884Z,95086.44
2022-07-29T03:00:05.757Z,95073.84
2022-07-29T03:02:37.585Z,95076.94
2022-07-29T03:05:07.549Z,95079.59
2022-07-29T03:07:37.345Z,95078.38
2022-07-29T03:10:05.527Z,95077.75
2022-07-29T03:12:38.419Z,95093.66
2022-07-29T03:15:06.682Z,95089.63
2022-07-29T03:17:34.079Z,95096.44
2022-07-29T03:20:01.086Z,95087.38
2022-07-29T03:22:28.195Z,95074.28
2022-07-29T03:24:54.845Z,95064.72
2022-07-29T03:27:21.916Z,95076.25
2022-07-29T03:29:50.558Z,95061.34
2022-07-29T03:32:17.453Z,95069.28
2022-07-29T03:34:50.679Z,95060.03
2022-07-29T03:37:17.344Z,95063.94
2022-07-29T03:39:45.228Z,95059.53
2022-07-29T03:42:14.314Z,95062.44
2022-07-29T03:44:44.158Z,95065.44
2022-07-29T03:47:14.491Z,95061.47
2022-07-29T03:49:41.975Z,95076.63
2022-07-29T03:52:09.070Z,95064.38
2022-07-29T03:54:35.921Z,95068.16
2022-07-29T03:57:04.566Z,95078.59
2022-07-29T03:59:33.773Z,95075.09
2022-07-29T04:02:03.295Z,95077.16
2022-07-29T04:04:30.199Z,95077.75
2022-07-29T04:06:56.844Z,95071.19
2022-07-29T04:09:23.458Z,95073.44
2022-07-29T04:12:01.773Z,95076.97
2022-07-29T04:14:30.547Z,95073.84
2022-07-29T04:16:57.127Z,95074.63
2022-07-29T04:19:23.725Z,95061.91
2022-07-29T04:21:50.516Z,95066.69
2022-07-29T04:24:17.863Z,95068.38
2022-07-29T04:26:46.901Z,95077.56
2022-07-29T04:29:15.245Z,95075.03
2022-07-29T04:31:42.574Z,95089.22
2022-07-29T04:34:10.067Z,95093.09
2022-07-29T04:36:36.814Z,95104.56
2022-07-29T04:39:04.058Z,95091.41
2022-07-29T04:41:33.168Z,95088.28
2022-07-29T04:44:02.110Z,95072.91
2022-07-29T04:46:29.117Z,95104.22
2022-07-29T04:48:56.270Z,95109.56
2022-07-29T04:51:23.125Z,95092.28
2022-07-29T04:53:49.697Z,95103.72
2022-07-29T04:56:16.301Z,95099.13
2022-07-29T04:58:42.931Z,95112.47
2022-07-29T05:01:09.607Z,95117.69
2022-07-29T05:03:36.478Z,95127.63
2022-07-29T05:06:03.121Z,95106.09
2022-07-29T05:08:29.761Z,95126.75
2022-07-29T05:10:56.455Z,95117.69
2022-07-29T05:13:23.033Z,95120.66
2022-07-29T05:15:49.906Z,95101.16
2022-07-29T05:18:16.691Z,95127.25
2022-07-29T05:20:43.265Z,95127.88
2022-07-29T05:23:10.098Z,95118.84
2022-07-29T05:25:42.002Z,95112.16
2022-07-29T05:28:12.426Z,95109.97
2022-07-29T05:30:39.741Z,95126.53
2022-07-29T05:33:06.391Z,95123.09
2022-07-29T05:35:33.477Z,95130.88
2022-07-29T05:38:00.070Z,95137.72
2022-07-29T05:40:26.766Z,95139.94
2022-07-29T05:42:53.425Z,95147.25
2022-07-29T05:45:20.067Z,95145.13
2022-07-29T05:47:46.726Z,95151.09
2022-07-29T05:50:13.571Z,95141.63
2022-07-29T05:52:40.413Z,95131.72
2022-07-29T05:55:07.335Z,95121.44
2022-07-29T05:57:34.173Z,95140.44
2022-07-29T06:00:00.808Z,95137.94
2022-07-29T06:02:27.489Z,95144.22
2022-07-29T06:04:54.875Z,95138.66
2022-07-29T06:07:21.891Z,95152.69
2022-07-29T06:09:48.741Z,95146.03
2022-07-29T06:12:15.475Z,95146.75
2022-07-29T06:14:42.159Z,95153.44
2022-07-29T06:17:08.850Z,95146.59
2022-07-29T06:19:36.408Z,95145.88
2022-07-29T06:22:03.328Z,95140.03
2022-07-29T06:24:29.939Z,95160.59
2022-07-29T06:26:56.964Z,95143.31
2022-07-29T06:29:23.621Z,95159.13
2022-07-29T06:31:50.202Z,95158.81
2022-07-29T06:34:17.463Z,95163.31
2022-07-29T06:36:44.552Z,95164.53
2022-07-29T06:39:12.829Z,95176.16
2022-07-29T06:41:39.580Z,95180.63
2022-07-29T06:44:06.191Z,95174.44
2022-07-29T06:46:33.332Z,95170.88
2022-07-29T06:49:02.539Z,95187.25
2022-07-29T06:51:29.954Z,95186.38
2022-07-29T06:54:02.226Z,95181.53
2022-07-29T06:56:39.595Z,95197.13
2022-07-29T06:59:10.418Z,95200.84
2022-07-29T07:01:42.830Z,95189.22
2022-07-29T07:04:10.279Z,95188.53
2022-07-29T07:06:37.329Z,95193.19
2022-07-29T07:09:04.574Z,95181.75
2022-07-29T07:11:31.600Z,95177.72
2022-07-29T07:14:03.114Z,95170.53
2022-07-29T07:16:31.097Z,95182.09
2022-07-29T07:18:57.726Z,95192.31
2022-07-29T07:21:24.396Z,95180.78
2022-07-29T07:23:51.015Z,95193.09
2022-07-29T07:26:17.696Z,95192.13
2022-07-29T07:28:44.358Z,95201.25
2022-07-29T07:31:11.903Z,95212.72
2022-07-29T07:33:38.566Z,95216.19
2022-07-29T07:36:05.331Z,95210.00
2022-07-29T07:38:31.932Z,95222.66
2022-07-29T07:40:58.570Z,95213.56
2022-07-29T07:43:25.151Z,95209.34
2022-07-29T07:45:51.820Z,95199.34
2022-07-29T07:50:45.198Z,95208.13
2022-07-29T07:53:12.120Z,95198.97
2022-07-29T07:56:09.783Z,95192.38
2022-07-29T07:58:35.423Z,95196.94
2022-07-29T08:01:02.055Z,95192.38
2022-07-29T08:03:28.700Z,95179.00
2022-07-29T08:05:55.715Z,95177.19
2022-07-29T08:08:22.348Z,95182.19
2022-07-29T08:10:55.677Z,95169.03
2022-07-29T08:13:24.615Z,95157.34
2022-07-29T08:16:12.537Z,95183.94
2022-07-29T08:18:40.660Z,95185.16
2022-07-29T08:21:07.524Z,95193.31
2022-07-29T08:23:46.821Z,95193.94
2022-07-29T08:26:15.693Z,95185.41
2022-07-29T08:28:47.820Z,95201.72
2022-07-29T08:31:15.402Z,95190.91
2022-07-29T08:33:42.197Z,95171.91
2022-07-29T08:36:08.967Z,95188.03
2022-07-29T08:38:35.894Z,95189.78
2022-07-29T08:41:02.912Z,95193.56
2022-07-29T08:43:30.057Z,95202.00
2022-07-29T08:45:56.774Z,95193.78
2022-07-29T08:48:25.746Z,95194.31
2022-07-29T08:50:57.151Z,95182.47
2022-07-29T08:53:27.761Z,95187.81
2022-07-29T08:55:55.391Z,95193.50
2022-07-29T08:58:24.957Z,95202.16
2022-07-29T09:00:58.104Z,95188.09
2022-07-29T09:03:28.402Z,95201.31
2022-07-29T09:05:55.583Z,95192.91
2022-07-29T09:08:23.734Z,95187.47
2022-07-29T09:10:50.958Z,95180.63
2022-07-29T09:13:17.607Z,95180.56
2022-07-29T09:15:45.431Z,95197.09
2022-07-29T09:18:28.910Z,95185.03
2022-07-29T09:21:16.147Z,95184.19
2022-07-29T09:24:00.214Z,95182.63
2022-07-29T09:26:31.834Z,95184.72
2022-07-29T09:28:59.786Z,95181.75
2022-07-29T09:31:38.499Z,95184.41
2022-07-29T09:34:06.779Z,95186.81
2022-07-29T09:36:41.506Z,95186.47
2022-07-29T09:39:08.153Z,95184.16
2022-07-29T09:41:50.533Z,95174.66
2022-07-29T09:44:17.658Z,95179.88
2022-07-29T09:47:08.229Z,95175.94
2022-07-29T09:49:36.589Z,95176.97
2022-07-29T09:52:09.132Z,95174.97
2022-07-29T09:54:40.551Z,95166.88
2022-07-29T09:57:13.462Z,95180.38
2022-07-29T09:59:50.057Z,95177.81
2022-07-29T10:02:22.277Z,95175.66
2022-07-29T10:04:50.651Z,95174.75
2022-07-29T10:07:17.420Z,95182.66
2022-07-29T10:09:55.761Z,95171.25
2022-07-29T10:12:22.778Z,95185.44
2022-07-29T10:14:50.199Z,95191.69
2022-07-29T10:17:18.346Z,95187.28
2022-07-29T10:19:45.084Z,95189.59
2022-07-29T10:22:12.423Z,95176.06
2022-07-29T10:24:40.695Z,95181.22
2022-07-29T10:27:09.558Z,95182.06
2022-07-29T10:29:37.151Z,95177.94
2022-07-29T10:32:09.850Z,95185.25
2022-07-29T10:35:04.380Z,95191.25
2022-07-29T10:37:58.471Z,95188.81
2022-07-29T10:41:09.249Z,95192.97
2022-07-29T10:43:43.757Z,95191.00
2022-07-29T10:46:12.920Z,95193.47
2022-07-29T10:49:08.739Z,95193.38
2022-07-29T10:51:51.458Z,95192.06
2022-07-29T10:54:52.095Z,95186.38
2022-07-29T10:57:53.071Z,95195.59
2022-07-29T11:00:16.863Z,95195.91
2022-07-29T11:02:45.575Z,95196.38
2022-07-29T11:05:15.571Z,95181.72
2022-07-29T11:08:19.623Z,95198.00
2022-07-29T11:10:49.168Z,95199.88
2022-07-29T11:13:46.532Z,95190.00
2022-07-29T11:16:16.144Z,95190.78
2022-07-29T11:19:14.418Z,95194.34
2022-07-29T11:21:53.799Z,95197.41
2022-07-29T11:24:35.739Z,95191.16
2022-07-29T11:30:06.138Z,95202.06
2022-07-29T11:32:41.862Z,95195.31
2022-07-29T11:35:17.061Z,95196.56
2022-07-29T11:37:52.137Z,95195.19
2022-07-29T11:40:21.353Z,95200.41
2022-07-29T11:42:50.144Z,95205.41
2022-07-29T11:45:42.786Z,95203.75
2022-07-29T11:48:31.399Z,95200.94
2022-07-29T11:51:00.712Z,95193.66
2022-07-29T11:53:28.906Z,95201.13
2022-07-29T11:56:00.334Z,95211.25
2022-07-29T11:58:28.407Z,95213.88
2022-07-29T12:00:56.455Z,95211.91
2022-07-29T12:03:35.225Z,95215.78
2022-07-29T12:06:04.592Z,95216.81
2022-07-29T12:07:03.783Z,95190.50
2022-07-29T12:08:43.519Z,95219.28
2022-07-29T12:11:22.488Z,95225.13
2022-07-29T12:13:53.731Z,95211.63
2022-07-29T12:16:25.375Z,95215.97
2022-07-29T12:19:00.708Z,95227.59
2022-07-29T12:21:30.209Z,95222.31
2022-07-29T12:24:03.409Z,95228.25
2022-07-29T12:26:34.071Z,95217.31
2022-07-29T12:29:02.363Z,95237.31
2022-07-29T12:31:42.251Z,95231.84
2022-07-29T12:34:16.163Z,95226.19
2022-07-29T12:36:43.921Z,95223.16
2022-07-29T12:39:12.490Z,95213.25
2022-07-29T12:41:39.925Z,95230.38
2022-07-29T12:44:06.588Z,95228.53
2022-07-29T12:46:33.292Z,95235.75
2022-07-29T12:49:00.068Z,95234.53
2022-07-29T12:51:34.596Z,95253.34
2022-07-29T12:54:04.251Z,95271.06
2022-07-29T12:56:42.666Z,95265.56
2022-07-29T12:59:14.573Z,95276.91
2022-07-29T13:01:41.309Z,95263.63
2022-07-29T13:04:08.067Z,95263.47
2022-07-29T13:06:50.849Z,95259.44
2022-07-29T13:09:20.500Z,95262.13
2022-07-29T13:11:53.908Z,95267.03
2022-07-29T13:14:35.504Z,95274.88
2022-07-29T13:17:03.928Z,95285.97
2022-07-29T13:19:44.830Z,95284.91
2022-07-29T13:22:16.942Z,95301.34
2022-07-29T13:24:54.394Z,95301.97
2022-07-29T13:27:30.098Z,95299.03
2022-07-29T13:29:58.802Z,95303.94
2022-07-29T13:32:27.747Z,95320.28
2022-07-29T13:34:57.377Z,95317.31
2022-07-29T13:37:24.049Z,95316.34
2022-07-29T13:39:53.017Z,95335.13
2022-07-29T13:42:20.737Z,95337.25
2022-07-29T13:44:49.702Z,95331.28
2022-07-29T13:47:17.202Z,95301.44
2022-07-29T13:49:43.912Z,95337.09
2022-07-29T13:52:10.770Z,95335.13
2022-07-29T13:54:42.103Z,95339.78
2022-07-29T13:57:12.003Z,95348.16
2022-07-29T13:59:40.142Z,95339.59
2022-07-29T14:02:07.113Z,95340.31
2022-07-29T14:04:34.565Z,95352.53
2022-07-29T14:07:03.565Z,95339.72
2022-07-29T14:09:41.197Z,95347.13
2022-07-29T14:12:09.392Z,95344.28
2022-07-29T14:14:37.604Z,95323.16
2022-07-29T14:17:07.543Z,95326.09
2022-07-29T14:19:36.728Z,95328.13
2022-07-29T14:22:08.545Z,95347.97
2022-07-29T14:24:37.474Z,95345.91
2022-07-29T14:27:05.574Z,95356.44
2022-07-29T14:29:37.636Z,95322.00
2022-07-29T14:32:07.340Z,95349.56
2022-07-29T14:34:34.712Z,95360.34
2022-07-29T14:37:01.711Z,95370.00
2022-07-29T14:39:32.005Z,95364.06
2022-07-29T14:41:59.400Z,95340.81
2022-07-29T14:44:32.064Z,95333.56
2022-07-29T14:47:00.679Z,95345.28
2022-07-29T14:49:30.289Z,95356.66
2022-07-29T14:51:57.493Z,95356.69
2022-07-29T14:54:24.283Z,95362.56
2022-07-29T14:56:51.903Z,95364.31
2022-07-29T14:59:18.599Z,95359.00
2022-07-29T15:01:45.328Z,95361.00
2022-07-29T15:04:11.967Z,95363.31
2022-07-29T15:06:38.978Z,95353.66
2022-07-29T15:09:05.747Z,95365.91
2022-07-29T15:11:38.255Z,95369.38
2022-07-29T15:14:05.782Z,95370.00
2022-07-29T15:16:32.717Z,95364.03
2022-07-29T15:19:01.185Z,95363.09
2022-07-29T15:21:28.539Z,95355.66
2022-07-29T15:23:55.344Z,95360.44
2022-07-29T15:26:22.122Z,95343.94
2022-07-29T15:28:49.125Z,95340.53
2022-07-29T15:31:16.058Z,95348.03
2022-07-29T15:33:42.820Z,95345.56
2022-07-29T15:36:09.757Z,95343.22
2022-07-29T15:38:37.765Z,95339.47
2022-07-29T15:41:09.151Z,95340.59
2022-07-29T15:43:36.264Z,95342.22
2022-07-29T15:46:21.540Z,95332.94
2022-07-29T15:48:48.460Z,95327.47
2022-07-29T15:51:15.367Z,95319.75
2022-07-29T15:53:42.311Z,95329.75
2022-07-29T15:56:08.989Z,95327.56
2022-07-29T15:58:35.623Z,95317.75
2022-07-29T16:01:02.372Z,95318.44
2022-07-29T16:03:30.125Z,95317.09
2022-07-29T16:05:57.322Z,95315.13
2022-07-29T16:08:23.968Z,95312.38
2022-07-29T16:10:50.707Z,95307.81
2022-07-29T16:13:18.820Z,95309.16
2022-07-29T16:15:46.102Z,95313.91
2022-07-29T16:18:30.025Z,95313.91
2022-07-29T16:20:57.136Z,95314.06
2022-07-29T16:23:24.797Z,95306.25
2022-07-29T16:26:00.533Z,95300.66
2022-07-29T16:28:28.772Z,95308.25
2022-07-29T16:30:55.701Z,95306.84
2022-07-29T16:33:22.530Z,95300.94
2022-07-29T16:35:49.960Z,95297.53
2022-07-29T16:38:16.619Z,95309.22
2022-07-29T16:40:43.651Z,95306.69
2022-07-29T16:43:10.586Z,95305.84
2022-07-29T16:45:46.026Z,95300.56
2022-07-29T16:48:18.800Z,95301.44
2022-07-29T16:50:45.996Z,95298.97
2022-07-29T16:53:12.617Z,95310.47
2022-07-29T16:55:42.035Z,95304.84
2022-07-29T16:58:09.662Z,95306.56
2022-07-29T17:00:36.702Z,95312.41
2022-07-29T17:03:03.645Z,95299.53
2022-07-29T17:05:30.297Z,95312.16
2022-07-29T17:08:16.993Z,95303.44
2022-07-29T17:10:43.940Z,95323.09
2022-07-29T17:13:10.963Z,95316.69
2022-07-29T17:15:37.724Z,95326.25
2022-07-29T17:18:12.748Z,95316.59
2022-07-29T17:20:41.449Z,95318.09
2022-07-29T17:23:08.185Z,95312.16
2022-07-29T17:25:34.887Z,95312.94
2022-07-29T17:28:01.657Z,95314.41
2022-07-29T17:30:29.390Z,95321.47
2022-07-29T17:32:56.305Z,95330.56
2022-07-29T17:35:41.281Z,95327.03
2022-07-29T17:38:08.156Z,95333.28
2022-07-29T17:40:34.759Z,95329.16
2022-07-29T17:43:01.366Z,95322.94
2022-07-29T17:45:49.882Z,95323.72
2022-07-29T17:48:14.638Z,95324.78
2022-07-29T17:50:41.291Z,95330.88
2022-07-29T17:53:15.700Z,95335.19
2022-07-29T17:55:45.054Z,95335.41
2022-07-29T17:58:11.962Z,95324.16
2022-07-29T18:00:38.668Z,95328.69
2022-07-29T18:03:05.375Z,95328.81
2022-07-29T18:05:32.053Z,95346.75
2022-07-29T18:07:59.002Z,95345.03
2022-07-29T18:10:25.627Z,95334.44
2022-07-29T18:12:52.476Z,95336.78
2022-07-29T18:17:57.411Z,95327.53
2022-07-29T18:20:28.417Z,95338.53
2022-07-29T18:22:55.265Z,95344.97
2022-07-29T18:25:22.325Z,95350.06
2022-07-29T18:27:48.905Z,95346.78
2022-07-29T18:30:16.172Z,95347.56
2022-07-29T18:32:59.228Z,95359.47
2022-07-29T18:35:31.002Z,95351.56
2022-07-29T18:38:01.917Z,95362.16
2022-07-29T18:40:29.779Z,95370.66
2022-07-29T18:42:56.951Z,95372.06
2022-07-29T18:45:28.211Z,95366.09
2022-07-29T18:47:56.693Z,95362.66
2022-07-29T18:50:28.871Z,95371.97
2022-07-29T18:52:58.538Z,95365.38
2022-07-29T18:55:26.279Z,95379.09
2022-07-29T18:57:53.703Z,95365.63
2022-07-29T19:00:23.958Z,95376.94
2022-07-29T19:02:50.915Z,95368.44
2022-07-29T19:05:17.595Z,95369.19
2022-07-29T19:07:44.157Z,95387.13
2022-07-29T19:10:11.326Z,95396.00
2022-07-29T19:12:38.027Z,95383.09
2022-07-29T19:15:05.046Z,95384.09
2022-07-29T19:17:31.789Z,95385.63
2022-07-29T19:19:58.453Z,95394.91
2022-07-29T19:22:25.177Z,95398.13
2022-07-29T19:24:51.975Z,95391.53
2022-07-29T19:27:18.966Z,95395.13
2022-07-29T19:29:45.947Z,95418.78
2022-07-29T19:32:13.603Z,95414.22
2022-07-29T19:35:10.675Z,95425.16
2022-07-29T19:37:37.607Z,95410.28
2022-07-29T19:40:05.751Z,95416.16
2022-07-29T19:42:32.530Z,95413.81
2022-07-29T19:44:59.201Z,95413.72
2022-07-29T19:47:25.873Z,95421.09
2022-07-29T19:49:52.442Z,95414.97
2022-07-29T19:52:19.118Z,95432.06
2022-07-29T19:54:45.731Z,95430.03
2022-07-29T19:57:12.350Z,95431.84
2022-07-29T19:59:38.985Z,95447.56
2022-07-29T20:02:05.936Z,95457.25
2022-07-29T20:04:32.562Z,95450.75
2022-07-29T20:07:01.845Z,95461.22
2022-07-29T20:09:28.909Z,95451.28
2022-07-29T20:11:55.754Z,95464.22
2022-07-29T20:14:22.885Z,95458.53
2022-07-29T20:16:50.539Z,95470.50
2022-07-29T20:19:17.519Z,95471.25
2022-07-29T20:21:44.435Z,95457.03
2022-07-29T20:24:11.772Z,95458.97
2022-07-29T20:26:38.561Z,95461.63
2022-07-29T20:29:05.423Z,95461.72
2022-07-29T20:31:32.838Z,95456.28
2022-07-29T20:34:00.742Z,95443.00
2022-07-29T20:36:28.185Z,95443.44
2022-07-29T20:38:56.014Z,95442.88
2022-07-29T20:41:23.085Z,95449.84
2022-07-29T20:43:52.881Z,95454.94
2022-07-29T20:46:19.612Z,95449.06
2022-07-29T20:48:47.202Z,95442.66
2022-07-29T20:51:14.536Z,95453.25
2022-07-29T20:53:41.806Z,95449.38
2022-07-29T20:56:08.627Z,95458.56
2022-07-29T20:58:36.373Z,95435.38
2022-07-29T21:01:04.282Z,95451.88
2022-07-29T21:03:31.381Z,95439.88
2022-07-29T21:05:59.022Z,95457.06
2022-07-29T21:08:26.681Z,95456.72
2022-07-29T21:10:53.852Z,95455.22
2022-07-29T21:13:23.230Z,95440.56
2022-07-29T21:15:51.743Z,95438.66
2022-07-29T21:18:32.858Z,95444.19
2022-07-29T21:21:04.707Z,95438.38
2022-07-29T21:23:31.820Z,95454.41
2022-07-29T21:25:58.731Z,95433.03
2022-07-29T21:28:29.411Z,95444.44
2022-07-29T21:31:01.085Z,95432.94
2022-07-29T21:33:29.984Z,95454.75
2022-07-29T21:36:26.625Z,95456.59
2022-07-29T21:38:44.080Z,95456.94
2022-07-29T21:41:12.700Z,95450.19
2022-07-29T21:43:41.913Z,95449.13
2022-07-29T21:46:09.382Z,95457.97
2022-07-29T21:48:36.038Z,95460.19
2022-07-29T21:51:02.700Z,95444.81
2022-07-29T21:53:29.339Z,95461.38
2022-07-29T21:55:57.486Z,95455.28
2022-07-29T21:58:24.822Z,95443.31
2022-07-29T22:00:52.303Z,95439.78
2022-07-29T22:03:18.959Z,95457.38
2022-07-29T22:05:45.812Z,95441.47
2022-07-29T22:08:13.587Z,95452.28
2022-07-29T22:10:40.637Z,95453.97
2022-07-29T22:13:07.420Z,95449.38
2022-07-29T22:15:34.055Z,95442.06
2022-07-29T22:18:00.764Z,95445.56
2022-07-29T22:20:27.939Z,95461.66
2022-07-29T22:22:55.158Z,95455.41
2022-07-29T22:25:21.915Z,95447.97
2022-07-29T22:27:48.737Z,95456.81
2022-07-29T22:30:15.754Z,95465.22
2022-07-29T22:32:42.858Z,95455.50
2022-07-29T22:35:09.769Z,95454.56
2022-07-29T22:37:36.505Z,95456.13
2022-07-29T22:40:03.751Z,95449.63
2022-07-29T22:42:30.515Z,95451.38
2022-07-29T22:44:57.127Z,95458.56
2022-07-29T22:47:39.794Z,95457.22
2022-07-29T22:50:10.453Z,95461.31
2022-07-29T22:52:37.083Z,95453.13
2022-07-29T22:55:05.022Z,95458.22
2022-07-29T22:57:31.669Z,95451.63
2022-07-29T22:59:58.367Z,95464.16
2022-07-29T23:02:24.964Z,95469.81
2022-07-29T23:04:51.761Z,95467.81
2022-07-29T23:07:18.617Z,95476.16
2022-07-29T23:09:45.218Z,95466.41
2022-07-29T23:12:13.243Z,95473.16
2022-07-29T23:14:39.900Z,95473.31
2022-07-29T23:17:06.634Z,95482.94
2022-07-29T23:19:33.267Z,95469.81
2022-07-29T23:21:59.972Z,95471.88
2022-07-29T23:24:26.601Z,95465.88
2022-07-29T23:26:53.957Z,95461.13
2022-07-29T23:29:20.720Z,95464.44
2022-07-29T23:31:48.234Z,95473.44
2022-07-29T23:34:15.337Z,95466.59
2022-07-29T23:36:42.532Z,95472.34
2022-07-29T23:39:11.398Z,95477.75
2022-07-29T23:41:38.080Z,95476.09
2022-07-29T23:44:05.127Z,95490.34
2022-07-29T23:46:31.835Z,95479.09
2022-07-29T23:48:58.604Z,95477.13
2022-07-29T23:51:25.258Z,95481.47
2022-07-29T23:53:53.450Z,95463.88
2022-07-29T23:56:22.239Z,95483.47
2022-07-29T23:58:48.909Z,95485.63
